Time;durP1;ratioP1;P1;durP2;ratioP2;P2;SDS_P1;SDS_P2;PMS_P1;PMS_P2;Temp;Humidity;BMP_temperature;BMP_pressure;BME280_temperature;BME280_humidity;BME280_pressure;Samples;Min_cycle;Max_cycle;Signal;HPM_P1;HPM_P2
2023/09/03 00:01:44;;;;;;;4.53;2.05;;;;;;;16.51;88.22;102717.94;5055781;27;97274;-26
2023/09/03 00:04:10;;;;;;;4.40;2.47;;;;;;;16.48;88.07;102713.50;5055969;27;96680;-26
2023/09/03 00:06:35;;;;;;;3.17;2.03;;;;;;;16.45;88.23;102715.56;5037543;27;97015;-26
2023/09/03 00:09:03;;;;;;;4.78;2.50;;;;;;;16.48;88.04;102723.56;5055471;27;97482;-27
2023/09/03 00:11:28;;;;;;;4.32;2.25;;;;;;;16.45;88.19;102719.16;5037202;27;100736;-29
2023/09/03 00:13:54;;;;;;;4.60;2.20;;;;;;;16.47;88.47;102721.78;5055857;27;96500;-26
2023/09/03 00:16:19;;;;;;;5.15;2.20;;;;;;;16.45;88.16;102712.81;5037788;27;96810;-26
2023/09/03 00:18:44;;;;;;;3.10;2.15;;;;;;;16.39;88.29;102707.69;5055255;27;99411;-26
2023/09/03 00:21:10;;;;;;;2.75;2.15;;;;;;;16.38;88.33;102717.75;5055021;27;99175;-26
2023/09/03 00:23:35;;;;;;;3.20;2.00;;;;;;;16.38;88.44;102733.28;5055274;27;96508;-27
2023/09/03 00:26:02;;;;;;;3.88;2.20;;;;;;;16.34;88.50;102727.09;5055293;27;96695;-26
2023/09/03 00:28:27;;;;;;;3.72;2.35;;;;;;;16.34;88.56;102730.69;5036953;27;99417;-26
2023/09/03 00:31:02;;;;;;;3.50;2.10;;;;;;;16.33;88.72;102733.53;5055288;27;97931;-26
2023/09/03 00:33:28;;;;;;;3.20;1.85;;;;;;;16.31;88.57;102728.13;5055575;27;96532;-27
2023/09/03 00:35:53;;;;;;;2.42;1.75;;;;;;;16.29;88.56;102721.00;5055313;27;96811;-30
2023/09/03 00:38:19;;;;;;;3.60;2.17;;;;;;;16.25;88.42;102713.91;5055120;27;97462;-26
2023/09/03 00:40:44;;;;;;;4.60;1.95;;;;;;;16.18;88.55;102710.63;5055624;27;97235;-26
2023/09/03 00:43:09;;;;;;;3.78;2.30;;;;;;;16.17;88.48;102706.16;5055258;27;96564;-26
2023/09/03 00:45:35;;;;;;;3.35;2.00;;;;;;;16.11;88.45;102704.66;5054402;27;96854;-26
2023/09/03 00:48:01;;;;;;;3.72;2.00;;;;;;;16.12;88.76;102702.78;5054356;27;99513;-26
2023/09/03 00:50:27;;;;;;;3.40;2.05;;;;;;;16.07;88.39;102703.03;5036488;27;100966;-27
2023/09/03 00:52:53;;;;;;;4.82;2.42;;;;;;;16.12;88.68;102711.00;5055075;27;96593;-26
2023/09/03 00:55:18;;;;;;;5.07;2.20;;;;;;;16.10;88.71;102702.88;5055408;27;96763;-27
2023/09/03 00:57:43;;;;;;;4.40;2.50;;;;;;;16.04;88.69;102684.09;5054962;27;97932;-27
2023/09/03 01:00:10;;;;;;;4.50;2.47;;;;;;;16.03;88.61;102695.97;5054745;27;98793;-26
2023/09/03 01:02:36;;;;;;;3.53;2.15;;;;;;;16.08;88.84;102704.78;5036774;27;96645;-26
2023/09/03 01:05:03;;;;;;;3.38;1.70;;;;;;;16.00;88.94;102692.53;5037214;27;96884;-26
2023/09/03 01:07:30;;;;;;;2.95;1.88;;;;;;;16.02;88.91;102702.41;5036298;27;101476;-28
2023/09/03 01:09:55;;;;;;;3.20;1.88;;;;;;;16.02;88.88;102696.94;5036323;27;99037;-26
2023/09/03 01:12:31;;;;;;;6.97;2.25;;;;;;;16.00;88.71;102698.88;5054397;27;96846;-26
2023/09/03 01:15:13;;;;;;;3.13;1.80;;;;;;;15.96;88.71;102688.19;5036589;27;96786;-29
2023/09/03 01:17:57;;;;;;;3.33;2.03;;;;;;;15.98;88.45;102699.94;5054529;27;99449;-31
2023/09/03 01:20:28;;;;;;;4.00;2.40;;;;;;;15.92;88.95;102692.94;5054956;27;97274;-26
2023/09/03 01:22:57;;;;;;;3.75;2.08;;;;;;;15.96;89.02;102700.00;5036778;27;96612;-28
2023/09/03 01:25:41;;;;;;;3.90;2.28;;;;;;;15.93;89.11;102705.66;5054832;27;96864;-27
2023/09/03 01:28:26;;;;;;;2.90;1.88;;;;;;;15.93;88.88;102700.19;5036154;27;101090;-26
2023/09/03 01:30:58;;;;;;;3.08;2.05;;;;;;;15.85;89.01;102691.50;5054724;27;99409;-26
2023/09/03 01:33:26;;;;;;;4.72;2.25;;;;;;;15.85;88.73;102716.09;5036419;27;96604;-26
2023/09/03 01:35:54;;;;;;;3.45;2.20;;;;;;;15.83;89.04;102704.41;5036538;27;96777;-27
2023/09/03 01:38:20;;;;;;;3.60;2.13;;;;;;;15.76;89.34;102697.50;5035611;27;101137;-26
2023/09/03 01:40:50;;;;;;;5.68;2.25;;;;;;;15.80;89.07;102707.25;5035490;27;101215;-27
2023/09/03 01:43:15;;;;;;;4.50;2.40;;;;;;;15.77;89.31;102707.44;5035973;27;96633;-26
2023/09/03 01:46:06;;;;;;;3.88;1.95;;;;;;;15.76;89.38;102711.16;5054591;27;96794;-26
2023/09/03 01:48:56;;;;;;;4.70;2.20;;;;;;;15.80;89.44;102729.13;5053782;27;99368;-27
2023/09/03 01:51:33;;;;;;;3.90;2.08;;;;;;;15.76;89.69;102739.34;5054166;27;97959;-27
2023/09/03 01:54:11;;;;;;;4.50;2.13;;;;;;;15.76;89.48;102753.00;5054588;27;96563;-26
2023/09/03 01:56:42;;;;;;;3.28;2.05;;;;;;;15.70;89.36;102743.28;5055864;27;96632;-27
2023/09/03 01:59:17;;;;;;;4.32;2.30;;;;;;;15.75;89.57;102761.28;5039335;27;101241;-26
2023/09/03 02:01:44;;;;;;;4.38;2.58;;;;;;;15.69;89.40;102766.06;5039154;27;101129;-26
2023/09/03 02:04:10;;;;;;;5.00;2.72;;;;;;;15.70;89.24;102765.13;5039159;27;96576;-26
2023/09/03 02:06:35;;;;;;;2.88;2.08;;;;;;;15.74;89.22;102765.88;5058031;27;96756;-26
2023/09/03 02:09:01;;;;;;;5.00;2.33;;;;;;;15.75;89.24;102758.56;5057505;27;96719;-26
2023/09/03 02:11:26;;;;;;;4.93;2.33;;;;;;;15.74;89.06;102762.25;5057241;27;99080;-26
2023/09/03 02:13:51;;;;;;;4.25;2.13;;;;;;;15.76;89.15;102761.22;5058197;27;96467;-26
2023/09/03 02:16:17;;;;;;;4.32;2.40;;;;;;;15.73;89.17;102761.38;5039015;27;97008;-27
2023/09/03 02:18:42;;;;;;;4.82;2.25;;;;;;;15.71;88.97;102753.25;5057176;27;99261;-26
2023/09/03 02:21:09;;;;;;;3.40;2.30;;;;;;;15.72;89.13;102743.19;5057575;27;97836;-27
2023/09/03 02:23:34;;;;;;;4.70;2.50;;;;;;;15.73;89.25;102749.53;5039243;27;96588;-26
2023/09/03 02:26:01;;;;;;;4.10;2.15;;;;;;;15.71;89.13;102739.59;5057217;27;96869;-26
2023/09/03 02:28:27;;;;;;;3.33;2.08;;;;;;;15.65;89.36;102730.81;5038251;27;101474;-30
2023/09/03 02:30:52;;;;;;;3.67;2.33;;;;;;;15.65;89.36;102733.53;5038543;27;100805;-26
2023/09/03 02:33:18;;;;;;;3.40;2.15;;;;;;;15.56;89.53;102721.22;5057212;27;96650;-26
2023/09/03 02:35:44;;;;;;;5.90;2.47;;;;;;;15.61;89.50;102732.81;5039135;27;96886;-27
2023/09/03 02:38:09;;;;;;;4.85;2.25;;;;;;;15.60;89.57;102738.34;5057241;27;97483;-26
2023/09/03 02:40:35;;;;;;;3.92;2.40;;;;;;;15.58;89.57;102727.50;5056971;27;97968;-26
2023/09/03 02:43:00;;;;;;;4.30;2.30;;;;;;;15.59;89.28;102731.09;5056935;27;96816;-27
2023/09/03 02:45:25;;;;;;;3.85;2.45;;;;;;;15.56;89.51;102720.34;5057472;27;96862;-26
2023/09/03 02:47:51;;;;;;;7.07;2.20;;;;;;;15.54;89.58;102722.28;5056892;27;97271;-26
2023/09/03 02:50:16;;;;;;;4.68;2.25;;;;;;;15.49;89.66;102717.06;5056887;27;97886;-26
2023/09/03 02:52:41;;;;;;;4.28;2.40;;;;;;;15.48;89.47;102718.03;5056859;27;96690;-26
2023/09/03 02:55:07;;;;;;;5.10;2.38;;;;;;;15.41;89.83;102697.47;5057203;27;96786;-26
2023/09/03 02:57:33;;;;;;;4.10;2.28;;;;;;;15.38;89.77;102695.78;5056722;27;99109;-26
2023/09/03 02:59:58;;;;;;;3.55;2.15;;;;;;;15.37;89.94;102704.03;5056356;27;98641;-26
2023/09/03 03:02:23;;;;;;;5.78;2.65;;;;;;;15.36;90.16;102711.34;5056724;27;96725;-27
2023/09/03 03:04:49;;;;;;;5.25;2.67;;;;;;;15.35;90.02;102708.69;5057006;27;96863;-26
2023/09/03 03:07:14;;;;;;;4.60;2.75;;;;;;;15.32;89.94;102709.75;5056219;27;98806;-28
2023/09/03 03:09:39;;;;;;;3.90;2.40;;;;;;;15.32;90.01;102725.25;5056500;27;97740;-26
2023/09/03 03:12:05;;;;;;;4.32;2.42;;;;;;;15.34;90.20;102732.41;5057013;27;96799;-26
2023/09/03 03:14:30;;;;;;;5.60;2.40;;;;;;;15.33;90.03;102748.88;5056538;27;96822;-27
2023/09/03 03:16:56;;;;;;;4.85;3.00;;;;;;;15.25;90.09;102730.13;5055676;27;99218;-26
2023/09/03 03:19:21;;;;;;;5.22;2.70;;;;;;;15.23;90.36;102732.97;5056377;27;97123;-27
2023/09/03 03:21:47;;;;;;;5.00;2.95;;;;;;;15.24;90.47;102734.72;5056827;27;96594;-26
2023/09/03 03:24:13;;;;;;;4.35;2.90;;;;;;;15.20;90.06;102754.94;5056658;27;96940;-27
2023/09/03 03:26:38;;;;;;;5.00;2.90;;;;;;;15.21;90.35;102766.78;5037798;27;101313;-26
2023/09/03 03:29:04;;;;;;;3.83;2.50;;;;;;;15.23;90.52;102773.91;5055989;27;98428;-27
2023/09/03 03:31:31;;;;;;;6.40;2.55;;;;;;;15.23;90.42;102771.19;5056577;27;96532;-26
2023/09/03 03:33:56;;;;;;;4.60;2.88;;;;;;;15.17;90.45;102751.50;5057095;27;96808;-26
2023/09/03 03:36:21;;;;;;;6.05;2.47;;;;;;;15.19;90.43;102752.31;5037771;27;99518;-27
2023/09/03 03:38:47;;;;;;;3.90;2.67;;;;;;;15.18;90.54;102754.16;5056070;27;97757;-27
2023/09/03 03:41:15;;;;;;;4.40;2.70;;;;;;;15.20;90.67;102757.66;5037151;27;96961;-26
2023/09/03 03:43:45;;;;;;;4.32;2.58;;;;;;;15.19;90.19;102763.22;5056132;27;96734;-26
2023/09/03 03:46:14;;;;;;;4.93;3.03;;;;;;;15.18;90.40;102753.25;5055935;27;97490;-27
2023/09/03 03:48:39;;;;;;;4.50;2.80;;;;;;;15.13;90.48;102745.28;5037562;27;101370;-26
2023/09/03 03:51:05;;;;;;;5.30;2.90;;;;;;;15.12;90.39;102757.19;5037820;27;96689;-26
2023/09/03 03:53:30;;;;;;;4.20;2.58;;;;;;;15.13;90.64;102763.53;5056035;27;96902;-26
2023/09/03 03:56:00;;;;;;;6.05;2.95;;;;;;;15.15;90.36;102769.78;5056008;27;98403;-26
2023/09/03 03:58:27;;;;;;;6.25;2.80;;;;;;;15.14;90.64;102773.50;5055857;27;99463;-26
2023/09/03 04:00:52;;;;;;;5.00;2.85;;;;;;;15.12;90.64;102779.03;5056308;27;96595;-27
2023/09/03 04:03:18;;;;;;;5.05;2.50;;;;;;;15.14;90.77;102789.88;5056096;27;96763;-26
2023/09/03 04:05:43;;;;;;;5.95;2.90;;;;;;;15.11;90.85;102785.44;5055004;27;98920;-27
2023/09/03 04:08:08;;;;;;;3.75;2.60;;;;;;;15.07;90.91;102772.91;5055556;27;97743;-26
2023/09/03 04:10:34;;;;;;;4.28;3.00;;;;;;;15.06;90.88;102768.38;5055953;27;96486;-26
2023/09/03 04:12:59;;;;;;;4.55;2.80;;;;;;;15.07;90.96;102767.44;5055722;27;96811;-26
2023/09/03 04:15:24;;;;;;;4.55;2.78;;;;;;;15.03;91.01;102755.78;5055384;27;98313;-26
2023/09/03 04:17:50;;;;;;;5.72;2.78;;;;;;;15.05;91.17;102767.50;5055694;27;97236;-26
2023/09/03 04:20:15;;;;;;;5.25;2.42;;;;;;;15.01;91.37;102759.56;5054509;27;96684;-29
2023/09/03 04:22:41;;;;;;;3.75;2.58;;;;;;;15.03;91.29;102763.09;5056240;27;96802;-27
2023/09/03 04:25:07;;;;;;;4.57;2.67;;;;;;;14.97;91.42;102757.94;5055129;27;99537;-27
2023/09/03 04:27:32;;;;;;;4.10;2.83;;;;;;;14.98;91.03;102757.00;5055114;27;99260;-26
2023/09/03 04:29:57;;;;;;;3.45;2.20;;;;;;;14.98;91.25;102759.72;5055114;27;96734;-26
2023/09/03 04:32:23;;;;;;;4.97;2.97;;;;;;;14.98;91.11;102765.19;5055528;27;96820;-26
2023/09/03 04:34:49;;;;;;;5.40;2.92;;;;;;;14.98;91.40;102766.06;5055125;27;99472;-26
2023/09/03 04:37:14;;;;;;;5.70;2.63;;;;;;;14.99;91.11;102769.66;5054998;27;99202;-27
2023/09/03 04:39:40;;;;;;;4.55;2.75;;;;;;;14.99;91.56;102766.94;5055526;27;96570;-27
2023/09/03 04:42:05;;;;;;;4.63;2.72;;;;;;;14.98;91.50;102785.16;5054558;27;96814;-26
2023/09/03 04:44:31;;;;;;;5.00;2.88;;;;;;;14.96;91.16;102783.47;5054883;27;99546;-26
2023/09/03 04:46:56;;;;;;;5.38;2.85;;;;;;;14.98;91.23;102795.19;5055407;27;97771;-27
2023/09/03 04:49:22;;;;;;;4.38;2.85;;;;;;;15.01;91.49;102792.31;5055436;27;96694;-26
2023/09/03 04:51:47;;;;;;;4.35;2.72;;;;;;;15.00;91.56;102793.28;5055144;27;96838;-26
2023/09/03 04:54:13;;;;;;;4.22;2.58;;;;;;;14.91;91.61;102780.06;5054932;27;97412;-27
2023/09/03 04:56:38;;;;;;;4.10;2.80;;;;;;;14.94;91.71;102788.97;5055012;27;97183;-27
2023/09/03 04:59:03;;;;;;;5.68;3.30;;;;;;;14.95;91.95;102800.81;5055436;27;96661;-27
2023/09/03 05:01:29;;;;;;;4.90;2.80;;;;;;;14.94;91.81;102808.09;5055093;27;96820;-27
2023/09/03 05:03:54;;;;;;;5.40;3.20;;;;;;;14.94;92.12;102818.13;5055199;27;97131;-27
2023/09/03 05:06:20;;;;;;;4.70;2.72;;;;;;;14.92;91.88;102814.59;5054647;27;99214;-27
2023/09/03 05:08:48;;;;;;;4.38;3.00;;;;;;;14.92;91.88;102820.03;5055223;27;96661;-26
2023/09/03 05:11:13;;;;;;;5.05;2.78;;;;;;;14.85;91.91;102803.97;5055219;27;96784;-26
2023/09/03 05:13:39;;;;;;;6.05;2.67;;;;;;;14.82;92.17;102808.69;5054591;27;99418;-27
2023/09/03 05:16:05;;;;;;;5.03;2.97;;;;;;;14.79;92.58;102803.38;5036407;27;101222;-26
2023/09/03 05:18:32;;;;;;;5.30;2.78;;;;;;;14.82;92.48;102811.41;5054596;27;96804;-26
2023/09/03 05:20:58;;;;;;;4.80;3.00;;;;;;;14.80;92.19;102813.31;5054540;27;96760;-26
2023/09/03 05:23:24;;;;;;;4.95;3.20;;;;;;;14.80;91.81;102806.06;5036185;27;100702;-26
2023/09/03 05:25:49;;;;;;;5.30;2.80;;;;;;;14.86;92.18;102818.50;5054348;27;97849;-26
2023/09/03 05:28:14;;;;;;;4.47;2.88;;;;;;;14.86;92.20;102813.03;5054934;27;96676;-26
2023/09/03 05:30:40;;;;;;;4.32;2.63;;;;;;;14.84;92.29;102813.09;5054893;27;96813;-27
2023/09/03 05:33:05;;;;;;;5.05;2.90;;;;;;;14.84;92.18;102814.97;5056917;27;99154;-26
2023/09/03 05:35:31;;;;;;;6.85;2.75;;;;;;;14.84;92.32;102824.03;5058631;27;97219;-27
2023/09/03 05:37:56;;;;;;;5.55;3.00;;;;;;;14.90;92.08;102830.13;5058241;27;96683;-26
2023/09/03 05:40:22;;;;;;;5.20;2.83;;;;;;;14.89;92.36;102826.53;5057932;27;96805;-26
2023/09/03 05:42:50;;;;;;;5.43;3.03;;;;;;;14.91;92.69;102830.06;5056816;27;99567;-26
2023/09/03 05:45:15;;;;;;;4.07;2.63;;;;;;;14.96;92.19;102838.03;5039588;27;101016;-27
2023/09/03 05:47:41;;;;;;;5.47;3.33;;;;;;;14.99;92.19;102841.53;5058309;27;96728;-27
2023/09/03 05:50:06;;;;;;;6.20;2.85;;;;;;;15.00;92.34;102836.94;5058123;27;96850;-26
2023/09/03 05:52:32;;;;;;;7.70;3.25;;;;;;;15.01;92.03;102833.25;5057581;27;100406;-26
2023/09/03 05:54:57;;;;;;;4.43;2.85;;;;;;;15.05;92.13;102841.22;5057518;27;97284;-26
2023/09/03 05:57:23;;;;;;;5.57;3.28;;;;;;;15.11;91.90;102848.22;5058204;27;96596;-26
2023/09/03 05:59:52;;;;;;;6.03;2.95;;;;;;;15.13;92.31;102851.75;5058256;27;96805;-26
2023/09/03 06:02:17;;;;;;;5.65;3.22;;;;;;;15.15;92.07;102848.97;5057875;27;97960;-26
2023/09/03 06:04:43;;;;;;;6.43;3.05;;;;;;;15.21;91.93;102860.47;5057845;27;98180;-27
2023/09/03 06:07:09;;;;;;;5.45;3.15;;;;;;;15.19;91.89;102859.66;5038784;27;96702;-26
2023/09/03 06:09:36;;;;;;;8.07;3.38;;;;;;;15.29;91.79;102877.34;5039226;27;96882;-26
2023/09/03 06:12:01;;;;;;;8.98;3.70;;;;;;;15.32;91.75;102872.69;5039150;27;101572;-26
2023/09/03 06:14:27;;;;;;;6.40;3.30;;;;;;;15.35;91.49;102875.28;5057244;27;99138;-31
2023/09/03 06:16:54;;;;;;;5.63;3.08;;;;;;;15.41;91.37;102884.06;5057761;27;96685;-27
2023/09/03 06:19:20;;;;;;;5.40;3.47;;;;;;;15.44;90.98;102888.47;5039366;27;96865;-26
2023/09/03 06:21:46;;;;;;;7.00;2.97;;;;;;;15.54;91.02;102892.53;5038840;27;101374;-26
2023/09/03 06:24:12;;;;;;;6.97;3.25;;;;;;;15.63;90.74;102899.38;5057594;27;98378;-26
2023/09/03 06:26:37;;;;;;;7.07;3.22;;;;;;;15.65;90.61;102909.25;5057347;27;96736;-27
2023/09/03 06:29:03;;;;;;;5.50;3.15;;;;;;;15.76;90.33;102905.16;5057749;27;96789;-28
2023/09/03 06:31:28;;;;;;;7.25;3.72;;;;;;;15.79;89.91;102908.59;5056948;27;97947;-27
2023/09/03 06:33:54;;;;;;;6.40;3.97;;;;;;;15.87;89.80;102908.22;5057221;27;97358;-27
2023/09/03 06:36:20;;;;;;;5.78;3.42;;;;;;;15.95;89.30;102906.00;5039012;27;96573;-26
2023/09/03 06:38:46;;;;;;;6.47;3.70;;;;;;;16.07;89.07;102909.94;5057112;27;96932;-26
2023/09/03 06:41:12;;;;;;;8.20;3.67;;;;;;;16.18;88.78;102915.72;5056390;27;99332;-26
2023/09/03 06:43:38;;;;;;;7.05;3.53;;;;;;;16.30;88.67;102923.31;5055739;27;99562;-26
2023/09/03 06:46:03;;;;;;;9.35;4.15;;;;;;;16.37;88.15;102910.16;5056862;27;96546;-26
2023/09/03 06:48:29;;;;;;;5.72;3.63;;;;;;;16.53;88.33;102907.50;5056219;27;96882;-27
2023/09/03 06:50:54;;;;;;;6.30;3.63;;;;;;;16.62;87.35;102904.28;5054850;27;98602;-26
2023/09/03 06:53:20;;;;;;;7.10;3.67;;;;;;;16.71;86.85;102908.38;5055152;27;99260;-26
2023/09/03 06:55:45;;;;;;;6.88;3.90;;;;;;;16.77;86.29;102905.28;5056841;27;96668;-26
2023/09/03 06:58:11;;;;;;;7.13;3.80;;;;;;;16.82;86.62;102895.00;5057277;27;96795;-27
2023/09/03 07:00:36;;;;;;;7.68;4.15;;;;;;;16.90;86.37;102900.03;5056715;27;97420;-27
2023/09/03 07:03:02;;;;;;;6.78;3.28;;;;;;;17.02;85.75;102904.84;5056970;27;97247;-27
2023/09/03 07:05:27;;;;;;;6.63;3.80;;;;;;;17.03;85.80;102900.25;5056961;27;96703;-27
2023/09/03 07:07:52;;;;;;;6.40;3.90;;;;;;;17.19;85.42;102901.16;5056750;27;96780;-26
2023/09/03 07:10:18;;;;;;;5.15;3.25;;;;;;;17.30;85.18;102903.28;5056684;27;97935;-26
2023/09/03 07:12:43;;;;;;;9.07;4.18;;;;;;;17.40;84.96;102904.53;5056694;27;97266;-26
2023/09/03 07:15:08;;;;;;;7.45;3.85;;;;;;;17.53;84.93;102901.97;5056420;27;96625;-26
2023/09/03 07:17:34;;;;;;;6.57;3.47;;;;;;;17.58;84.38;102903.44;5055626;27;96668;-27
2023/09/03 07:19:59;;;;;;;8.88;4.18;;;;;;;17.74;83.50;102908.03;5055720;27;97976;-26
2023/09/03 07:22:25;;;;;;;7.00;4.30;;;;;;;17.81;82.92;102910.34;5053939;27;99240;-29
2023/09/03 07:24:52;;;;;;;7.22;3.65;;;;;;;17.94;82.65;102924.22;5054083;27;96627;-26
2023/09/03 07:27:17;;;;;;;9.40;3.35;;;;;;;18.01;82.68;102927.47;5035741;27;97179;-31
2023/09/03 07:29:43;;;;;;;5.63;3.17;;;;;;;18.16;82.44;102922.91;5053982;27;97333;-28
2023/09/03 07:32:08;;;;;;;5.40;3.38;;;;;;;18.19;81.32;102920.91;5054008;27;97788;-28
2023/09/03 07:34:33;;;;;;;5.72;3.30;;;;;;;18.37;81.82;102940.81;5054050;27;97123;-28
2023/09/03 07:36:59;;;;;;;5.28;3.13;;;;;;;18.47;81.13;102935.66;5054173;27;97112;-27
2023/09/03 07:39:24;;;;;;;5.00;3.15;;;;;;;18.51;80.08;102936.34;5053834;27;98376;-30
2023/09/03 07:41:49;;;;;;;5.78;3.42;;;;;;;18.70;80.64;102941.59;5034562;27;99030;-27
2023/09/03 07:44:15;;;;;;;5.78;3.50;;;;;;;18.82;80.13;102938.97;5053801;27;96756;-30
2023/09/03 07:46:40;;;;;;;5.43;3.20;;;;;;;19.01;79.61;102949.69;5053951;27;97354;-31
2023/09/03 07:49:05;;;;;;;5.47;3.30;;;;;;;19.08;79.21;102941.94;5053664;27;97984;-28
2023/09/03 07:51:31;;;;;;;4.93;2.95;;;;;;;19.17;78.78;102944.09;5054188;27;97808;-27
2023/09/03 07:53:56;;;;;;;10.45;3.42;;;;;;;19.17;78.51;102945.97;5056367;27;96502;-26
2023/09/03 07:56:21;;;;;;;4.97;3.33;;;;;;;19.21;79.02;102945.66;5055799;27;96872;-26
2023/09/03 07:58:47;;;;;;;4.88;2.85;;;;;;;19.37;78.64;102947.41;5055817;27;97909;-26
2023/09/03 08:01:15;;;;;;;7.28;3.22;;;;;;;19.41;78.15;102930.63;5037748;27;98929;-26
2023/09/03 08:03:42;;;;;;;5.57;3.08;;;;;;;19.61;77.52;102951.28;5037605;27;96633;-26
2023/09/03 08:06:07;;;;;;;5.93;2.92;;;;;;;19.58;77.50;102951.50;5037389;27;96818;-26
2023/09/03 08:08:33;;;;;;;6.00;3.03;;;;;;;19.71;77.71;102946.06;5054911;27;99409;-26
2023/09/03 08:10:59;;;;;;;6.18;3.63;;;;;;;19.83;76.82;102955.38;5055757;27;98388;-31
2023/09/03 08:13:24;;;;;;;5.43;3.35;;;;;;;19.90;76.49;102951.22;5055919;27;96486;-27
2023/09/03 08:15:50;;;;;;;6.35;3.40;;;;;;;19.97;75.68;102941.56;5055772;27;96842;-26
2023/09/03 08:18:16;;;;;;;5.68;3.17;;;;;;;20.15;75.68;102956.81;5055579;27;97913;-26
2023/09/03 08:20:42;;;;;;;4.88;2.95;;;;;;;20.32;75.33;102939.13;5036545;27;100783;-27
2023/09/03 08:23:12;;;;;;;7.60;3.33;;;;;;;20.46;74.50;102946.44;5055902;27;96643;-26
2023/09/03 08:25:37;;;;;;;5.45;3.05;;;;;;;20.50;74.71;102944.38;5037771;27;96846;-26
2023/09/03 08:28:03;;;;;;;4.47;3.00;;;;;;;20.55;73.15;102940.31;5055396;27;98016;-26
2023/09/03 08:30:29;;;;;;;4.18;2.83;;;;;;;20.65;73.62;102946.06;5036886;27;100743;-26
2023/09/03 08:32:54;;;;;;;4.78;2.90;;;;;;;20.65;72.76;102937.78;5055008;27;96800;-26
2023/09/03 08:35:20;;;;;;;6.72;2.97;;;;;;;20.79;73.40;102932.19;5055219;27;96824;-26
2023/09/03 08:37:45;;;;;;;4.80;2.70;;;;;;;20.99;72.85;102929.84;5055047;27;98790;-26
2023/09/03 08:40:11;;;;;;;4.93;2.90;;;;;;;21.15;72.23;102922.22;5055040;27;99583;-26
2023/09/03 08:42:40;;;;;;;4.82;3.35;;;;;;;21.21;70.94;102938.34;5054540;27;96881;-26
2023/09/03 08:45:10;;;;;;;5.22;2.85;;;;;;;21.23;71.49;102934.56;5055320;27;96901;-27
2023/09/03 08:47:39;;;;;;;7.75;3.78;;;;;;;21.31;71.42;102940.38;5054991;27;97426;-26
2023/09/03 08:50:06;;;;;;;5.78;3.00;;;;;;;21.42;71.65;102943.28;5055386;27;99091;-26
2023/09/03 08:52:32;;;;;;;7.22;3.25;;;;;;;21.40;71.75;102937.88;5036929;27;96603;-26
2023/09/03 08:55:00;;;;;;;5.47;3.35;;;;;;;21.42;70.85;102933.09;5055281;27;96803;-26
2023/09/03 08:57:28;;;;;;;4.13;2.55;;;;;;;21.52;71.17;102947.09;5036036;27;100975;-27
2023/09/03 08:59:55;;;;;;;6.82;2.90;;;;;;;21.61;70.89;102945.53;5036522;27;100939;-26
2023/09/03 09:02:21;;;;;;;4.70;2.85;;;;;;;21.86;70.33;102941.81;5054640;27;96563;-28
2023/09/03 09:04:47;;;;;;;5.80;2.95;;;;;;;21.99;69.77;102930.69;5036741;27;96906;-26
2023/09/03 09:07:13;;;;;;;9.48;3.22;;;;;;;22.17;69.12;102939.44;5054006;27;96729;-26
2023/09/03 09:09:40;;;;;;;5.40;2.85;;;;;;;22.23;68.38;102927.94;5054815;27;97320;-26
2023/09/03 09:12:38;;;;;;;4.60;2.40;;;;;;;22.35;68.33;102938.03;5036624;27;96587;-27
2023/09/03 09:15:04;;;;;;;4.85;2.22;;;;;;;22.44;67.99;102934.53;4998973;27;96784;-26
2023/09/03 09:17:43;;;;;;;5.13;2.13;;;;;;;22.53;67.17;102932.94;5036043;27;102259;-26
2023/09/03 09:20:12;;;;;;;4.75;2.55;;;;;;;22.47;68.15;102923.25;5036115;27;101026;-26
2023/09/03 09:22:44;;;;;;;4.55;2.67;;;;;;;22.63;67.02;102919.28;5054319;27;96802;-27
2023/09/03 09:25:23;;;;;;;5.22;2.20;;;;;;;22.81;67.12;102927.94;5036251;27;97038;-27
2023/09/03 09:27:53;;;;;;;4.32;2.05;;;;;;;22.95;64.83;102924.94;5054547;27;97969;-27
2023/09/03 09:30:21;;;;;;;3.17;2.08;;;;;;;22.78;65.34;102923.56;5036061;27;100789;-26
2023/09/03 09:32:47;;;;;;;3.17;1.95;;;;;;;22.86;65.73;102920.19;5036425;27;96726;-27
2023/09/03 09:35:23;;;;;;;5.85;2.28;;;;;;;22.83;64.10;102921.28;5036516;27;96879;-26
2023/09/03 09:37:49;;;;;;;6.28;1.95;;;;;;;22.91;65.98;102926.22;5035710;27;99153;-27
2023/09/03 09:40:25;;;;;;;3.38;1.95;;;;;;;22.94;65.08;102911.28;5054642;27;99125;-26
2023/09/03 09:42:52;;;;;;;3.70;2.05;;;;;;;23.03;65.32;102918.84;5054415;27;96822;-27
2023/09/03 09:45:18;;;;;;;3.45;1.88;;;;;;;23.11;66.04;102913.56;5036256;27;96817;-26
2023/09/03 09:47:43;;;;;;;3.65;1.98;;;;;;;23.20;65.21;102918.34;5053955;27;97452;-26
2023/09/03 09:50:08;;;;;;;4.93;2.53;;;;;;;23.45;65.40;102919.06;5054438;27;97351;-29
2023/09/03 09:52:36;;;;;;;2.50;1.58;;;;;;;23.65;64.93;102922.94;5036316;27;96674;-26
2023/09/03 09:55:01;;;;;;;5.40;2.28;;;;;;;23.58;64.03;102918.91;5036143;27;96956;-26
2023/09/03 09:57:27;;;;;;;3.88;2.17;;;;;;;23.36;63.55;102906.88;5054029;27;99213;-28
2023/09/03 10:00:00;;;;;;;3.33;2.25;;;;;;;23.38;63.86;102910.38;5035757;27;100825;-26
2023/09/03 10:02:26;;;;;;;3.53;2.00;;;;;;;23.50;63.29;102902.94;5054308;27;96533;-26
2023/09/03 10:04:52;;;;;;;5.35;2.53;;;;;;;23.71;63.33;102906.66;5036262;27;96887;-26
2023/09/03 10:07:18;;;;;;;4.55;2.08;;;;;;;23.74;62.40;102905.59;5035710;27;101069;-28
2023/09/03 10:09:44;;;;;;;2.30;1.70;;;;;;;23.83;62.39;102906.66;5035630;27;101034;-29
2023/09/03 10:12:10;;;;;;;3.65;2.15;;;;;;;24.14;62.33;102910.44;5035439;27;96559;-26
2023/09/03 10:14:36;;;;;;;3.88;2.30;;;;;;;24.37;61.74;102916.75;5054780;27;96850;-27
2023/09/03 10:17:04;;;;;;;3.53;2.20;;;;;;;24.47;59.60;102901.09;5035623;27;101063;-27
2023/09/03 10:19:41;;;;;;;3.72;2.28;;;;;;;24.52;60.62;102900.69;5055213;27;97299;-27
2023/09/03 10:22:19;;;;;;;3.50;2.10;;;;;;;24.38;61.02;102905.53;5039390;27;96588;-26
2023/09/03 10:24:52;;;;;;;3.80;2.00;;;;;;;24.37;60.47;102919.50;5024094;27;96744;-26
2023/09/03 10:27:21;;;;;;;4.57;2.67;;;;;;;24.30;59.27;102913.63;5038818;27;100619;-26
2023/09/03 10:29:48;;;;;;;3.55;1.95;;;;;;;24.23;59.86;102926.25;5057461;27;98144;-26
2023/09/03 10:32:16;;;;;;;6.00;1.98;;;;;;;24.16;60.35;102920.38;5039122;27;96615;-26
2023/09/03 10:34:42;;;;;;;3.10;1.70;;;;;;;24.32;60.76;102922.69;5039203;27;96895;-26
2023/09/03 10:37:12;;;;;;;5.40;1.83;;;;;;;24.25;59.85;102921.47;5038215;27;101293;-28
2023/09/03 10:39:45;;;;;;;4.80;1.83;;;;;;;24.22;58.83;102923.59;5038661;27;101141;-26
2023/09/03 10:42:23;;;;;;;3.38;2.05;;;;;;;24.25;57.68;102926.13;5056881;27;96835;-26
2023/09/03 10:44:53;;;;;;;2.88;1.77;;;;;;;24.28;60.47;102923.97;5057469;27;96825;-26
2023/09/03 10:47:19;;;;;;;5.22;2.13;;;;;;;24.17;60.44;102913.84;5038408;27;101042;-27
2023/09/03 10:49:48;;;;;;;2.75;1.73;;;;;;;24.31;59.86;102920.94;5038641;27;101250;-26
2023/09/03 10:52:30;;;;;;;3.20;1.52;;;;;;;24.50;60.03;102927.66;5038919;27;96650;-27
2023/09/03 10:55:15;;;;;;;3.38;1.67;;;;;;;24.62;58.31;102917.38;5038923;27;96845;-26
2023/09/03 10:57:43;;;;;;;2.97;1.60;;;;;;;24.87;58.77;102924.38;5038248;27;101231;-26
2023/09/03 11:00:15;;;;;;;3.03;1.63;;;;;;;24.89;57.53;102926.00;5038353;27;99007;-26
2023/09/03 11:02:42;;;;;;;4.38;1.90;;;;;;;24.81;56.72;102911.94;5056478;27;96606;-28
2023/09/03 11:05:26;;;;;;;4.50;1.98;;;;;;;24.74;55.52;102914.41;5038466;27;96839;-26
2023/09/03 11:08:21;;;;;;;3.47;2.03;;;;;;;24.86;57.41;102920.75;5038165;27;100805;-26
2023/09/03 11:10:48;;;;;;;2.72;1.38;;;;;;;24.79;57.25;102908.44;5056550;27;97924;-26
2023/09/03 11:13:13;;;;;;;2.55;1.50;;;;;;;24.91;57.31;102921.22;5038791;27;96595;-27
2023/09/03 11:15:47;;;;;;;2.90;1.48;;;;;;;24.97;56.00;102923.41;5056620;27;96973;-27
2023/09/03 11:18:17;;;;;;;2.65;1.60;;;;;;;24.90;57.06;102919.44;5056351;27;99496;-26
2023/09/03 11:20:43;;;;;;;3.47;1.48;;;;;;;24.94;57.26;102922.81;5038127;27;100870;-26
2023/09/03 11:23:10;;;;;;;5.55;1.85;;;;;;;25.05;57.11;102931.06;5056552;27;96528;-26
2023/09/03 11:25:40;;;;;;;2.65;1.55;;;;;;;25.23;53.61;102927.66;5038354;27;96848;-26